createdAt,value
2023-02-15T00:01:37.517Z,1.00
2023-02-15T00:04:07.729Z,1.00
2023-02-15T00:06:35.081Z,1.00
2023-02-15T00:09:03.687Z,1.00
2023-02-15T00:11:50.980Z,1.00
2023-02-15T00:14:22.826Z,1.00
2023-02-15T00:16:50.915Z,1.10
2023-02-15T00:19:19.499Z,28.50
2023-02-15T00:21:47.193Z,34.70
2023-02-15T00:24:16.341Z,17.60
2023-02-15T00:26:43.979Z,1.00
2023-02-15T00:29:12.743Z,1.00
2023-02-15T00:31:39.591Z,1.00
2023-02-15T00:34:10.868Z,1.00
2023-02-15T00:36:37.851Z,1.00
2023-02-15T00:39:05.678Z,1.00
2023-02-15T00:41:33.272Z,2.50
2023-02-15T00:44:00.279Z,1.00
2023-02-15T00:46:27.146Z,1.00
2023-02-15T00:48:54.052Z,1.00
2023-02-15T00:51:21.484Z,1.00
2023-02-15T00:53:48.810Z,1.00
2023-02-15T00:56:15.761Z,1.00
2023-02-15T00:58:43.029Z,44.10
2023-02-15T01:01:12.636Z,10.80
2023-02-15T01:03:39.607Z,1.10
2023-02-15T01:06:06.428Z,1.70
2023-02-15T01:08:33.259Z,60.00
2023-02-15T01:11:07.997Z,99.90
2023-02-15T01:13:35.438Z,99.90
2023-02-15T01:16:03.346Z,99.30
2023-02-15T01:18:31.021Z,99.90
2023-02-15T01:20:58.482Z,99.90
2023-02-15T01:23:25.439Z,75.70
2023-02-15T01:25:52.302Z,39.90
2023-02-15T01:28:19.169Z,70.60
2023-02-15T01:30:45.962Z,99.90
2023-02-15T01:33:18.851Z,99.90
2023-02-15T01:35:47.139Z,99.90
2023-02-15T01:38:15.054Z,99.90
2023-02-15T01:40:42.074Z,87.30
2023-02-15T01:43:12.690Z,80.80
2023-02-15T01:45:39.769Z,81.80
2023-02-15T01:48:18.570Z,65.50
2023-02-15T01:50:49.001Z,71.40
2023-02-15T01:53:35.973Z,53.70
2023-02-15T01:56:07.416Z,91.50
2023-02-15T01:58:35.351Z,99.90
2023-02-15T02:01:05.004Z,69.50
2023-02-15T02:04:05.953Z,71.80
2023-02-15T02:06:33.898Z,99.90
2023-02-15T02:09:01.133Z,99.90
2023-02-15T02:11:27.936Z,99.90
2023-02-15T02:13:55.550Z,99.90
2023-02-15T02:16:50.454Z,77.50
2023-02-15T02:19:54.208Z,75.60
2023-02-15T02:22:48.509Z,52.70
2023-02-15T02:25:54.221Z,60.10
2023-02-15T02:28:33.810Z,49.60
2023-02-15T02:31:09.628Z,40.30
2023-02-15T02:33:45.706Z,72.60
2023-02-15T02:36:34.175Z,99.90
2023-02-15T02:39:24.405Z,91.80
2023-02-15T02:41:51.194Z,75.80
2023-02-15T02:44:20.941Z,99.90
2023-02-15T02:47:12.104Z,99.90
2023-02-15T02:49:41.366Z,99.90
2023-02-15T02:52:42.996Z,99.90
2023-02-15T02:55:23.113Z,99.90
2023-02-15T02:58:02.108Z,99.90
2023-02-15T03:00:31.625Z,99.90
2023-02-15T03:03:06.930Z,99.90
2023-02-15T03:05:35.905Z,99.90
2023-02-15T03:08:07.178Z,99.90
2023-02-15T03:10:35.636Z,99.90
2023-02-15T03:13:02.524Z,99.90
2023-02-15T03:15:54.980Z,99.90
2023-02-15T03:18:24.958Z,99.90
2023-02-15T03:20:53.316Z,99.90
2023-02-15T03:23:24.244Z,99.90
2023-02-15T03:25:58.402Z,99.90
2023-02-15T03:28:30.394Z,99.90
2023-02-15T03:31:00.861Z,99.90
2023-02-15T03:33:28.464Z,99.90
2023-02-15T03:35:58.280Z,99.90
2023-02-15T03:38:41.722Z,1.00
2023-02-15T03:41:11.517Z,1.00
2023-02-15T03:43:42.458Z,99.90
2023-02-15T03:46:13.887Z,99.90
2023-02-15T03:48:44.400Z,1.00
2023-02-15T03:51:37.459Z,1.00
2023-02-15T03:54:13.546Z,1.00
2023-02-15T03:56:42.331Z,1.00
2023-02-15T03:59:27.999Z,1.00
2023-02-15T04:02:03.587Z,1.00
2023-02-15T04:04:39.414Z,99.90
2023-02-15T04:07:08.168Z,1.00
2023-02-15T04:09:53.751Z,1.00
2023-02-15T04:12:20.661Z,1.00
2023-02-15T04:15:05.991Z,1.00
2023-02-15T04:17:32.831Z,1.00
2023-02-15T04:20:18.440Z,1.00
2023-02-15T04:23:03.795Z,4.40
2023-02-15T04:25:30.669Z,99.90
2023-02-15T04:27:57.472Z,99.90
2023-02-15T04:30:26.198Z,99.90
2023-02-15T04:32:54.851Z,99.90
2023-02-15T04:35:21.635Z,99.90
2023-02-15T04:37:48.619Z,99.90
2023-02-15T04:40:18.839Z,99.90
2023-02-15T04:42:49.036Z,99.90
2023-02-15T04:45:15.976Z,99.90
2023-02-15T04:47:42.752Z,99.90
2023-02-15T04:50:10.337Z,37.40
2023-02-15T04:52:37.270Z,32.20
2023-02-15T04:55:04.481Z,70.60
2023-02-15T04:57:31.338Z,99.90
2023-02-15T05:00:00.014Z,1.00
2023-02-15T05:02:26.957Z,99.90
2023-02-15T05:04:53.925Z,99.90
2023-02-15T05:07:21.459Z,99.90
2023-02-15T05:09:48.933Z,99.90
2023-02-15T05:12:15.889Z,22.80
2023-02-15T05:14:42.664Z,99.90
2023-02-15T05:17:09.398Z,99.90
2023-02-15T05:19:36.228Z,1.00
2023-02-15T05:22:03.040Z,1.00
2023-02-15T05:24:48.357Z,99.90
2023-02-15T05:27:33.800Z,1.00
2023-02-15T05:30:00.697Z,1.00
2023-02-15T05:32:27.687Z,1.00
2023-02-15T05:34:54.613Z,1.00
2023-02-15T05:37:21.410Z,1.00
2023-02-15T05:39:48.176Z,1.00
2023-02-15T05:42:15.048Z,1.00
2023-02-15T05:44:41.989Z,1.00
2023-02-15T05:47:08.817Z,1.00
2023-02-15T05:49:35.723Z,1.00
2023-02-15T05:52:02.676Z,99.90
2023-02-15T05:54:29.782Z,99.90
2023-02-15T05:56:56.561Z,28.80
2023-02-15T05:59:23.432Z,80.70
2023-02-15T06:01:50.286Z,17.00
2023-02-15T06:04:17.707Z,99.90
2023-02-15T06:06:44.615Z,99.90
2023-02-15T06:09:14.219Z,99.90
2023-02-15T06:11:41.179Z,99.90
2023-02-15T06:14:08.024Z,99.90
2023-02-15T06:16:34.865Z,99.90
2023-02-15T06:19:02.878Z,99.90
2023-02-15T06:21:30.984Z,99.90
2023-02-15T06:23:58.038Z,99.90
2023-02-15T06:26:25.260Z,28.70
2023-02-15T06:28:52.088Z,99.90
2023-02-15T06:31:18.981Z,99.90
2023-02-15T06:33:45.861Z,1.00
2023-02-15T06:36:13.610Z,1.00
2023-02-15T06:38:40.555Z,99.90
2023-02-15T06:41:07.396Z,57.10
2023-02-15T06:43:35.216Z,99.90
2023-02-15T06:46:02.426Z,1.00
2023-02-15T06:48:29.434Z,99.90
2023-02-15T06:50:56.340Z,99.90
2023-02-15T06:53:23.153Z,99.90
2023-02-15T06:55:50.091Z,99.90
2023-02-15T06:58:16.940Z,1.00
2023-02-15T07:00:43.792Z,1.00
2023-02-15T07:03:10.612Z,1.00
2023-02-15T07:05:37.400Z,1.00
2023-02-15T07:08:04.327Z,1.00
2023-02-15T07:10:31.218Z,1.00
2023-02-15T07:12:57.998Z,99.90
2023-02-15T07:15:25.464Z,99.90
2023-02-15T07:17:52.312Z,99.90
2023-02-15T07:20:23.733Z,99.90
2023-02-15T07:22:50.784Z,81.20
2023-02-15T07:25:18.329Z,99.90
2023-02-15T07:27:45.908Z,99.90
2023-02-15T07:30:15.686Z,99.90
2023-02-15T07:33:04.562Z,1.00
2023-02-15T07:35:32.023Z,1.00
2023-02-15T07:37:58.917Z,1.00
2023-02-15T07:40:25.808Z,1.00
2023-02-15T07:42:54.304Z,1.00
2023-02-15T07:45:22.124Z,56.40
2023-02-15T07:47:48.906Z,76.80
2023-02-15T07:50:15.934Z,1.00
2023-02-15T07:52:42.769Z,1.00
2023-02-15T07:55:09.934Z,1.00
2023-02-15T07:57:36.846Z,1.00
2023-02-15T08:00:04.771Z,1.00
2023-02-15T08:02:31.610Z,1.00
2023-02-15T08:04:58.422Z,1.00
2023-02-15T08:07:25.204Z,1.00
2023-02-15T08:09:51.995Z,1.00
2023-02-15T08:12:18.848Z,1.00
2023-02-15T08:14:45.668Z,1.00
2023-02-15T08:17:12.489Z,1.00
2023-02-15T08:19:39.390Z,1.00
2023-02-15T08:22:07.964Z,1.00
2023-02-15T08:24:39.859Z,1.00
2023-02-15T08:27:08.590Z,1.00
2023-02-15T08:29:36.639Z,1.00
2023-02-15T08:32:10.167Z,1.00
2023-02-15T08:34:39.462Z,1.00
2023-02-15T08:37:07.093Z,1.00
2023-02-15T08:39:34.588Z,1.00
2023-02-15T08:42:01.717Z,1.00
2023-02-15T08:44:28.673Z,1.00
2023-02-15T08:46:55.900Z,1.00
2023-02-15T08:49:23.331Z,1.00
2023-02-15T08:51:50.627Z,1.00
2023-02-15T08:54:21.762Z,1.00
2023-02-15T08:56:49.134Z,1.00
2023-02-15T08:59:21.686Z,1.00
2023-02-15T09:01:50.634Z,1.00
2023-02-15T09:04:18.389Z,1.00
2023-02-15T09:06:48.539Z,1.00
2023-02-15T09:09:16.883Z,1.00
2023-02-15T09:11:44.988Z,1.00
2023-02-15T09:14:17.015Z,1.00
2023-02-15T09:16:47.357Z,1.00
2023-02-15T09:19:14.403Z,1.00
2023-02-15T09:21:41.533Z,1.00
2023-02-15T09:24:14.755Z,99.90
2023-02-15T09:26:45.380Z,99.90
2023-02-15T09:29:13.614Z,99.90
2023-02-15T09:31:45.054Z,99.90
2023-02-15T09:34:14.236Z,99.90
2023-02-15T09:36:41.653Z,99.90
2023-02-15T09:39:10.206Z,99.90
2023-02-15T09:41:55.430Z,99.90
2023-02-15T09:44:40.858Z,86.70
2023-02-15T09:47:38.095Z,1.00
2023-02-15T09:50:25.972Z,99.90
2023-02-15T09:53:49.993Z,1.00
2023-02-15T09:56:33.114Z,99.90
2023-02-15T09:58:59.911Z,1.00
2023-02-15T10:01:36.189Z,99.90
2023-02-15T10:04:19.374Z,99.90
2023-02-15T10:07:02.723Z,99.90
2023-02-15T10:09:52.735Z,63.80
2023-02-15T10:12:38.958Z,99.90
2023-02-15T10:15:29.342Z,99.90
2023-02-15T10:17:59.189Z,99.90
2023-02-15T10:20:40.206Z,99.90
2023-02-15T10:23:45.487Z,99.90
2023-02-15T10:26:28.012Z,94.10
2023-02-15T10:28:58.507Z,99.90
2023-02-15T10:31:33.455Z,5.80
2023-02-15T10:34:24.367Z,1.00
2023-02-15T10:36:59.632Z,4.60
2023-02-15T10:39:49.068Z,1.00
2023-02-15T10:42:18.928Z,1.00
2023-02-15T10:45:04.399Z,99.90
2023-02-15T10:47:52.567Z,99.90
2023-02-15T10:50:45.541Z,99.90
2023-02-15T10:53:27.746Z,99.90
2023-02-15T10:56:08.190Z,1.00
2023-02-15T10:59:09.965Z,99.90
2023-02-15T11:01:52.023Z,99.90
2023-02-15T11:04:28.081Z,1.00
2023-02-15T11:06:59.061Z,99.90
2023-02-15T11:09:30.828Z,99.90
2023-02-15T11:12:00.689Z,99.90
2023-02-15T11:14:45.002Z,99.90
2023-02-15T11:17:18.691Z,30.40
2023-02-15T11:20:25.967Z,1.00
2023-02-15T11:22:54.428Z,1.00
2023-02-15T11:25:41.786Z,1.00
2023-02-15T11:28:23.638Z,99.90
2023-02-15T11:30:53.231Z,1.00
2023-02-15T11:33:27.670Z,99.90
2023-02-15T11:36:14.880Z,1.00
2023-02-15T11:38:44.703Z,99.90
2023-02-15T11:41:15.028Z,99.90
2023-02-15T11:43:52.467Z,1.00
2023-02-15T11:46:20.854Z,99.90
2023-02-15T11:48:47.997Z,99.90
2023-02-15T11:51:22.669Z,99.90
2023-02-15T11:53:50.836Z,3.60
2023-02-15T11:56:20.704Z,1.00
2023-02-15T11:58:50.660Z,1.00
2023-02-15T12:01:41.537Z,1.00
2023-02-15T12:04:17.389Z,1.00
2023-02-15T12:06:49.073Z,1.00
2023-02-15T12:09:41.674Z,99.90
2023-02-15T12:12:28.031Z,1.00
2023-02-15T12:14:57.006Z,1.00
2023-02-15T12:17:29.480Z,1.00
2023-02-15T12:19:58.840Z,99.90
2023-02-15T12:22:27.093Z,1.00
2023-02-15T12:24:56.928Z,1.00
2023-02-15T12:27:30.637Z,1.00
2023-02-15T12:30:35.156Z,99.90
2023-02-15T12:33:41.986Z,99.90
2023-02-15T12:36:23.882Z,99.90
2023-02-15T12:39:07.328Z,99.90
2023-02-15T12:41:35.235Z,99.90
2023-02-15T12:44:06.659Z,99.90
2023-02-15T12:46:37.905Z,99.90
2023-02-15T12:49:20.945Z,99.90
2023-02-15T12:51:53.424Z,99.90
2023-02-15T12:54:23.872Z,99.90
2023-02-15T12:56:50.827Z,99.90
2023-02-15T12:59:23.098Z,99.90
2023-02-15T13:01:52.247Z,99.90
2023-02-15T13:04:29.849Z,99.90
2023-02-15T13:07:00.922Z,99.90
2023-02-15T13:09:33.818Z,99.90
2023-02-15T13:12:13.371Z,99.90
2023-02-15T13:14:45.733Z,99.90
2023-02-15T13:17:13.401Z,99.90
2023-02-15T13:19:45.994Z,99.90
2023-02-15T13:22:23.387Z,99.90
2023-02-15T13:24:55.418Z,99.90
2023-02-15T13:27:25.821Z,99.90
2023-02-15T13:29:54.939Z,99.90
2023-02-15T13:32:37.379Z,62.40
2023-02-15T13:35:08.158Z,62.70
2023-02-15T13:37:50.996Z,9.70
2023-02-15T13:40:29.512Z,45.00
2023-02-15T13:43:16.203Z,1.00
2023-02-15T13:46:11.478Z,1.00
2023-02-15T13:48:50.313Z,1.00
2023-02-15T13:51:29.496Z,1.00
2023-02-15T13:53:59.980Z,1.00
2023-02-15T13:56:36.037Z,51.10
2023-02-15T13:59:41.541Z,1.00
2023-02-15T14:02:26.961Z,1.00
2023-02-15T14:05:45.139Z,1.00
2023-02-15T14:08:26.778Z,1.00
2023-02-15T14:11:14.389Z,1.00
2023-02-15T14:13:41.158Z,1.00
2023-02-15T14:16:33.812Z,1.00
2023-02-15T14:19:30.445Z,1.00
2023-02-15T14:22:29.412Z,1.00
2023-02-15T14:25:19.779Z,1.00
2023-02-15T14:28:08.929Z,1.00
2023-02-15T14:30:48.801Z,1.00
2023-02-15T14:33:15.605Z,1.00
2023-02-15T14:35:43.958Z,1.00
2023-02-15T14:38:10.765Z,1.00
2023-02-15T14:41:02.092Z,1.00
2023-02-15T14:43:41.552Z,1.00
2023-02-15T14:46:22.983Z,1.00
2023-02-15T14:48:53.107Z,1.00
2023-02-15T14:51:43.814Z,1.00
2023-02-15T14:54:12.086Z,1.00
2023-02-15T14:56:41.742Z,1.00
2023-02-15T14:59:21.946Z,1.00
2023-02-15T15:02:14.296Z,1.00
2023-02-15T15:04:44.399Z,1.00
2023-02-15T15:07:17.258Z,1.00
2023-02-15T15:09:47.106Z,1.00
2023-02-15T15:12:16.961Z,1.00
2023-02-15T15:14:45.296Z,1.00
2023-02-15T15:17:14.413Z,99.90
2023-02-15T15:19:52.439Z,99.90
2023-02-15T15:22:24.615Z,1.00
2023-02-15T15:25:01.302Z,1.00
2023-02-15T15:27:46.001Z,99.90
2023-02-15T15:30:15.717Z,1.00
2023-02-15T15:32:42.517Z,1.00
2023-02-15T15:35:21.620Z,99.90
2023-02-15T15:37:57.634Z,99.90
2023-02-15T15:41:01.682Z,99.90
2023-02-15T15:43:53.835Z,99.90
2023-02-15T15:46:27.906Z,1.00
2023-02-15T15:48:55.174Z,99.90
2023-02-15T15:51:28.638Z,99.90
2023-02-15T15:53:56.013Z,99.90
2023-02-15T15:56:29.056Z,99.90
2023-02-15T15:58:59.863Z,99.90
2023-02-15T16:01:32.432Z,99.90
2023-02-15T16:04:00.372Z,99.90
2023-02-15T16:06:30.028Z,99.90
2023-02-15T16:08:57.006Z,99.90
2023-02-15T16:11:30.329Z,99.90
2023-02-15T16:13:57.319Z,99.90
2023-02-15T16:16:29.119Z,99.90
2023-02-15T16:19:00.765Z,99.90
2023-02-15T16:21:30.714Z,99.90
2023-02-15T16:24:06.663Z,99.90
2023-02-15T16:26:54.764Z,99.90
2023-02-15T16:29:30.618Z,1.00
2023-02-15T16:32:06.819Z,1.00
2023-02-15T16:34:34.419Z,1.00
2023-02-15T16:37:17.680Z,1.00
2023-02-15T16:39:46.023Z,1.00
2023-02-15T16:42:14.201Z,1.00
2023-02-15T16:44:41.621Z,1.00
2023-02-15T16:47:17.169Z,1.00
2023-02-15T16:49:49.756Z,1.00
2023-02-15T16:52:22.157Z,1.00
2023-02-15T16:54:53.522Z,1.00
2023-02-15T16:57:23.124Z,1.00
2023-02-15T16:59:52.191Z,1.00
2023-02-15T17:02:43.078Z,1.00
2023-02-15T17:05:12.555Z,1.00
2023-02-15T17:08:18.947Z,1.00
2023-02-15T17:11:03.454Z,1.00
2023-02-15T17:13:30.880Z,1.00
2023-02-15T17:16:01.090Z,1.00
2023-02-15T17:18:30.122Z,1.00
2023-02-15T17:21:01.692Z,1.00
2023-02-15T17:23:37.616Z,1.00
2023-02-15T17:26:16.466Z,1.00
2023-02-15T17:28:48.671Z,1.00
2023-02-15T17:31:18.389Z,1.00
2023-02-15T17:33:45.698Z,1.00
2023-02-15T17:36:17.173Z,1.00
2023-02-15T17:39:00.117Z,1.00
2023-02-15T17:41:32.528Z,1.00
2023-02-15T17:44:00.412Z,1.00
2023-02-15T17:46:33.189Z,1.00
2023-02-15T17:49:00.223Z,1.00
2023-02-15T17:51:27.183Z,1.00
2023-02-15T17:54:12.561Z,1.00
2023-02-15T17:56:39.744Z,1.00
2023-02-15T17:59:12.505Z,1.00
2023-02-15T18:02:05.527Z,1.00
2023-02-15T18:04:51.906Z,1.00
2023-02-15T18:07:38.011Z,1.00
2023-02-15T18:10:33.045Z,1.00
2023-02-15T18:12:59.898Z,1.00
2023-02-15T18:15:26.978Z,1.00
2023-02-15T18:17:54.335Z,1.00
2023-02-15T18:20:28.801Z,1.00
2023-02-15T18:22:55.618Z,1.00
2023-02-15T18:25:25.535Z,1.00
2023-02-15T18:27:54.858Z,1.00
2023-02-15T18:30:23.962Z,1.00
2023-02-15T18:32:52.590Z,1.00
2023-02-15T18:35:21.482Z,1.00
2023-02-15T18:37:49.044Z,1.00
2023-02-15T18:40:20.556Z,1.00
2023-02-15T18:42:49.168Z,1.00
2023-02-15T18:45:28.828Z,1.00
2023-02-15T18:47:55.667Z,1.00
2023-02-15T18:50:23.009Z,1.00
2023-02-15T18:52:51.696Z,1.00
2023-02-15T18:55:24.044Z,1.00
2023-02-15T18:57:52.842Z,1.00
2023-02-15T19:00:33.561Z,1.00
2023-02-15T19:03:02.211Z,1.00
2023-02-15T19:05:30.081Z,4.00
2023-02-15T19:07:57.914Z,23.90
2023-02-15T19:10:26.656Z,31.20
2023-02-15T19:12:54.533Z,27.90
2023-02-15T19:15:24.505Z,84.00
2023-02-15T19:17:52.367Z,99.90
2023-02-15T19:20:28.302Z,87.90
2023-02-15T19:22:56.440Z,99.90
2023-02-15T19:25:26.249Z,99.90
2023-02-15T19:27:53.993Z,99.90
2023-02-15T19:30:29.957Z,99.90
2023-02-15T19:32:57.838Z,99.90
2023-02-15T19:35:27.357Z,99.90
2023-02-15T19:37:56.354Z,99.90
2023-02-15T19:40:26.189Z,99.90
2023-02-15T19:42:53.148Z,99.90
2023-02-15T19:45:22.697Z,99.90
2023-02-15T19:47:49.876Z,99.90
2023-02-15T19:50:24.521Z,99.90
2023-02-15T19:52:51.852Z,99.90
2023-02-15T19:55:33.280Z,99.90
2023-02-15T19:58:01.630Z,99.90
2023-02-15T20:00:33.365Z,99.90
2023-02-15T20:03:00.876Z,99.90
2023-02-15T20:05:29.515Z,99.90
2023-02-15T20:07:57.056Z,99.90
2023-02-15T20:10:27.547Z,99.90
2023-02-15T20:12:55.484Z,99.90
2023-02-15T20:15:27.242Z,99.90
2023-02-15T20:17:54.409Z,99.90
2023-02-15T20:20:22.645Z,99.90
2023-02-15T20:22:51.007Z,99.90
2023-02-15T20:25:31.047Z,99.90
2023-02-15T20:27:59.394Z,99.90
2023-02-15T20:30:29.607Z,99.90
2023-02-15T20:32:57.074Z,1.00
2023-02-15T20:35:26.181Z,1.00
2023-02-15T20:37:55.606Z,1.00
2023-02-15T20:40:25.063Z,1.00
2023-02-15T20:42:51.966Z,1.00
2023-02-15T20:45:24.272Z,1.00
2023-02-15T20:47:52.172Z,1.00
2023-02-15T20:50:31.064Z,1.00
2023-02-15T20:52:59.420Z,1.00
2023-02-15T20:55:29.259Z,1.00
2023-02-15T20:57:57.359Z,1.00
2023-02-15T21:00:26.547Z,1.00
2023-02-15T21:03:00.767Z,1.00
2023-02-15T21:05:33.454Z,1.00
2023-02-15T21:08:01.784Z,1.00
2023-02-15T21:10:30.836Z,1.00
2023-02-15T21:12:59.732Z,1.00
2023-02-15T21:15:39.872Z,1.00
2023-02-15T21:18:10.659Z,1.00
2023-02-15T21:20:39.980Z,1.00
2023-02-15T21:23:07.182Z,1.00
2023-02-15T21:25:36.011Z,1.00
2023-02-15T21:28:04.818Z,1.00
2023-02-15T21:30:31.728Z,1.00
2023-02-15T21:32:58.520Z,1.00
2023-02-15T21:35:25.552Z,5.90
2023-02-15T21:37:53.263Z,1.00
2023-02-15T21:40:28.358Z,1.00
2023-02-15T21:43:13.795Z,29.50
2023-02-15T21:46:15.847Z,83.10
2023-02-15T21:48:42.910Z,1.00
2023-02-15T21:51:28.268Z,23.50
2023-02-15T21:53:55.054Z,37.30
2023-02-15T21:56:23.202Z,99.90
2023-02-15T21:58:50.093Z,99.90
2023-02-15T22:01:26.601Z,99.90
2023-02-15T22:03:55.082Z,99.90
2023-02-15T22:06:22.358Z,99.90
2023-02-15T22:08:49.533Z,99.90
2023-02-15T22:11:20.308Z,99.90
2023-02-15T22:13:47.567Z,99.90
2023-02-15T22:16:19.723Z,99.90
2023-02-15T22:18:47.092Z,99.90
2023-02-15T22:21:16.659Z,99.90
2023-02-15T22:23:43.725Z,99.90
2023-02-15T22:26:23.545Z,99.90
2023-02-15T22:28:50.490Z,99.90
2023-02-15T22:31:21.210Z,99.90
2023-02-15T22:33:49.853Z,99.90
2023-02-15T22:36:22.978Z,99.90
2023-02-15T22:38:49.823Z,99.90
2023-02-15T22:41:17.313Z,99.90
2023-02-15T22:43:45.442Z,99.90
2023-02-15T22:46:17.814Z,99.90
2023-02-15T22:48:45.691Z,99.90
2023-02-15T22:51:23.581Z,99.90
2023-02-15T22:53:52.380Z,99.90
2023-02-15T22:56:23.319Z,99.90
2023-02-15T22:58:50.561Z,1.00
2023-02-15T23:01:23.401Z,99.90
2023-02-15T23:03:50.250Z,99.90
2023-02-15T23:06:17.156Z,99.90
2023-02-15T23:08:43.948Z,99.90
2023-02-15T23:11:11.367Z,99.90
2023-02-15T23:13:38.312Z,1.00
2023-02-15T23:16:07.125Z,1.00
2023-02-15T23:18:39.062Z,99.90
2023-02-15T23:21:20.647Z,1.00
2023-02-15T23:23:52.922Z,1.00
2023-02-15T23:26:27.777Z,1.00
2023-02-15T23:28:56.410Z,1.00
2023-02-15T23:31:32.422Z,1.00
2023-02-15T23:34:10.380Z,1.00
2023-02-15T23:36:39.105Z,1.00
2023-02-15T23:39:35.684Z,1.00
2023-02-15T23:42:07.731Z,99.90
2023-02-15T23:44:34.508Z,99.90
2023-02-15T23:47:01.413Z,99.90
2023-02-15T23:49:29.038Z,99.90
2023-02-15T23:51:57.322Z,99.90
2023-02-15T23:54:25.927Z,99.90
2023-02-15T23:56:55.454Z,99.90
2023-02-15T23:59:24.690Z,99.90
